Belgrade Nikola Tesla, Serbia

9:12 AM CEST on April 18, 2015 (GMT +0200)
Belgrade | | Change Station
CLOSE
Current Station
Airport
Location: Belgrade Nikola Tesla,
Elevation: 325 ft
Nearby Weather Stations

Elev 325 ft 44.82 °N, 20.29 °E | Updated 12 minutes ago

Light Rain
Light Rain Mist
52 °F
Feels Like 52 °F
N
16
Wind Variable Wind from NW

Today
High -- | Low -- °F
--% Chance of Precip.
Yesterday
High -- | Low -- °F
Precip. -- in
5:50 AM 7:27 PM
Waning Crescent, 0% visible
Pressure 29.92 in
Visibility 3.1 miles
Clouds Mostly Cloudy 1000 ft
Mostly Cloudy 3300 ft
Dew Point 50 °F
Humidity 94%
Rainfall 0.00 in
Snow Depth Not available.
UV 2 out of 12
Pollen Not available.
Air Quality Not available.
Flu Activity Not available.
METAR LYBE 180700Z 32014KT 5000 -RA BR BKN010 BKN033 11/10 Q1013 TEMPO 34015G25KT

More Conditions Fewer Conditions

Pressure 29.92 in
Visibility 3.1 miles
Clouds Mostly Cloudy 1000 ft
Mostly Cloudy 3300 ft
Dew Point 50 °F
Humidity 94%
Rainfall 0.00 in
Snow Depth Not available.
UV 2 out of 12
Pollen Not available.
Air Quality Not available.
Flu Activity Not available.
METAR LYBE 180700Z 32014KT 5000 -RA BR BKN010 BKN033 11/10 Q1013 TEMPO 34015G25KT

More Conditions Fewer Conditions

10-Day Weather Forecast

Almanac

Astronomy

Apr. 18, 2015 Rise Set
Actual Time
Civil Twilight
Nautical Twilight
Astronomical Twilight
Moon
Length of Visible Light
Length of Day
Tomorrow will be .
, % of the Moon is Illuminated

Today's Extremes

Country Highs Country Lows

Community

WunderPhotos

Upload Photos

1,814,341 photos uploaded!

WunderBlogs® & News

Nearby

Air Quality

  Air Quality AQ Index Pollutant
Not available.

Snow Depth

Station Depth Elevation

Earthquake Activity

City Distance Mag. Time & Date
Minimum magnitude displayed is 2.5.

Coastal Water Temperatures

Place Temperature

Stations

Nearby Weather Stations

Station Location Temp. Windchill Dew Point Humidity Wind Precip. Elev Updated Type